Time;durP1;ratioP1;P1;durP2;ratioP2;P2;SDS_P1;SDS_P2;PMS_P1;PMS_P2;Temp;Humidity;BMP_temperature;BMP_pressure;BME280_temperature;BME280_humidity;BME280_pressure;Samples;Min_cycle;Max_cycle;Signal;HPM_P1;HPM_P2
2021/07/22 00:01:18;;;;;;;15.87;7.67;;;;;;;;;;10248732;28;20308;-74
2021/07/22 00:06:21;;;;;;;13.53;7.43;;;;;;;;;;10244747;28;20620;-71
2021/07/22 00:11:24;;;;;;;13.40;7.80;;;;;;;;;;10252990;28;20248;-73
2021/07/22 00:16:28;;;;;;;14.10;8.00;;;;;;;;;;10240203;28;20751;-73
2021/07/22 00:21:30;;;;;;;14.00;7.67;;;;;;;;;;10246854;28;20763;-74
2021/07/22 00:26:33;;;;;;;14.43;7.67;;;;;;;;;;10240390;28;20216;-73
2021/07/22 00:31:37;;;;;;;12.47;7.13;;;;;;;;;;10243743;28;20199;-73
2021/07/22 00:36:40;;;;;;;14.13;7.63;;;;;;;;;;10249476;28;20223;-73
2021/07/22 00:41:42;;;;;;;14.43;7.73;;;;;;;;;;10248191;28;20220;-72
2021/07/22 00:46:46;;;;;;;12.67;7.57;;;;;;;;;;10243640;28;20283;-73
2021/07/22 00:51:49;;;;;;;13.20;7.80;;;;;;;;;;10244370;28;20196;-73
2021/07/22 00:56:51;;;;;;;15.70;8.13;;;;;;;;;;10244817;28;20266;-72
2021/07/22 01:01:55;;;;;;;14.13;7.90;;;;;;;;;;10225989;28;20323;-73
2021/07/22 01:06:58;;;;;;;14.47;7.90;;;;;;;;;;10238998;28;20224;-71
2021/07/22 01:12:00;;;;;;;13.93;7.90;;;;;;;;;;10234804;28;20204;-73
2021/07/22 01:17:09;;;;;;;14.90;8.53;;;;;;;;;;10233747;28;20218;-72
2021/07/22 01:22:12;;;;;;;13.50;8.07;;;;;;;;;;10234842;28;20724;-73
2021/07/22 01:27:15;;;;;;;14.43;8.13;;;;;;;;;;10246832;28;20204;-73
2021/07/22 01:32:18;;;;;;;15.00;8.73;;;;;;;;;;10251371;28;20239;-71
2021/07/22 01:37:22;;;;;;;14.97;8.87;;;;;;;;;;10257193;28;20204;-73
2021/07/22 01:42:25;;;;;;;15.37;8.80;;;;;;;;;;10250437;28;20228;-71
2021/07/22 01:47:27;;;;;;;16.10;8.87;;;;;;;;;;10262840;28;20637;-73
2021/07/22 01:52:31;;;;;;;17.03;9.43;;;;;;;;;;10251843;28;20296;-72
2021/07/22 01:57:34;;;;;;;15.90;9.73;;;;;;;;;;10252291;28;20290;-72
2021/07/22 02:02:36;;;;;;;17.97;10.10;;;;;;;;;;10251482;28;20230;-72
2021/07/22 02:07:40;;;;;;;15.17;9.07;;;;;;;;;;10244348;28;20188;-71
2021/07/22 02:12:43;;;;;;;18.10;10.00;;;;;;;;;;10244418;28;20251;-72
2021/07/22 02:17:47;;;;;;;19.23;10.57;;;;;;;;;;10251008;28;20279;-71
2021/07/22 02:22:51;;;;;;;19.00;10.70;;;;;;;;;;10240130;28;20232;-72
2021/07/22 02:27:53;;;;;;;18.20;10.00;;;;;;;;;;10252414;28;20312;-72
2021/07/22 02:32:56;;;;;;;16.60;9.47;;;;;;;;;;10251090;28;20292;-72
2021/07/22 02:38:00;;;;;;;16.57;10.20;;;;;;;;;;10247411;28;20666;-73
2021/07/22 02:43:02;;;;;;;16.60;9.80;;;;;;;;;;10247249;28;20258;-73
2021/07/22 02:48:05;;;;;;;17.47;10.50;;;;;;;;;;10250278;28;20201;-71
2021/07/22 02:53:09;;;;;;;16.57;9.43;;;;;;;;;;10248869;28;20235;-72
2021/07/22 02:58:12;;;;;;;15.80;9.07;;;;;;;;;;10245899;28;20602;-72
2021/07/22 03:03:14;;;;;;;17.17;10.03;;;;;;;;;;10249565;28;20280;-72
2021/07/22 03:08:21;;;;;;;16.93;10.07;;;;;;;;;;10246857;28;20224;-72
2021/07/22 03:13:24;;;;;;;15.90;9.40;;;;;;;;;;10241465;28;20216;-72
2021/07/22 03:18:27;;;;;;;15.83;9.40;;;;;;;;;;10252728;28;20283;-72
2021/07/22 03:23:31;;;;;;;15.40;8.93;;;;;;;;;;10243750;28;21070;-72
2021/07/22 03:28:33;;;;;;;13.63;8.83;;;;;;;;;;10248157;28;20201;-73
2021/07/22 03:33:36;;;;;;;16.83;9.77;;;;;;;;;;10247128;28;20299;-72
2021/07/22 03:38:40;;;;;;;16.27;9.20;;;;;;;;;;10244057;28;22154;-72
2021/07/22 03:43:43;;;;;;;15.57;9.10;;;;;;;;;;10243011;28;20664;-72
2021/07/22 03:48:46;;;;;;;16.37;9.17;;;;;;;;;;10245974;28;20292;-72
2021/07/22 03:53:50;;;;;;;14.37;8.77;;;;;;;;;;10253352;28;20209;-72
2021/07/22 03:58:53;;;;;;;17.57;9.83;;;;;;;;;;10242627;28;20713;-73
2021/07/22 04:03:55;;;;;;;13.83;9.13;;;;;;;;;;10242199;28;20228;-73
2021/07/22 04:08:59;;;;;;;15.67;9.50;;;;;;;;;;10242644;28;20658;-72
2021/07/22 04:14:02;;;;;;;14.73;8.83;;;;;;;;;;10251081;28;20596;-73
2021/07/22 04:19:25;;;;;;;14.90;8.83;;;;;;;;;;10240908;28;20197;-71
2021/07/22 04:24:49;;;;;;;15.50;9.60;;;;;;;;;;10243871;28;20224;-73
2021/07/22 04:30:13;;;;;;;15.53;9.10;;;;;;;;;;10251144;28;20636;-72
2021/07/22 04:35:35;;;;;;;16.07;9.83;;;;;;;;;;10239430;28;20611;-74
2021/07/22 04:40:59;;;;;;;15.97;9.57;;;;;;;;;;10245346;28;20565;-74
2021/07/22 04:46:22;;;;;;;15.50;9.50;;;;;;;;;;10232240;28;20224;-72
2021/07/22 04:51:24;;;;;;;16.20;9.33;;;;;;;;;;10239418;28;20211;-73
2021/07/22 04:56:49;;;;;;;16.77;9.37;;;;;;;;;;10237724;28;20696;-72
2021/07/22 05:02:11;;;;;;;16.73;9.83;;;;;;;;;;10246603;28;20209;-73
2021/07/22 05:07:34;;;;;;;15.37;9.87;;;;;;;;;;10244432;28;20197;-72
2021/07/22 05:13:02;;;;;;;15.97;9.70;;;;;;;;;;10246785;28;20232;-73
2021/07/22 05:18:24;;;;;;;17.87;9.70;;;;;;;;;;10243021;28;20688;-71
2021/07/22 05:23:47;;;;;;;17.13;9.93;;;;;;;;;;10243954;28;20240;-71
2021/07/22 05:29:09;;;;;;;16.03;10.03;;;;;;;;;;10224139;28;20196;-72
2021/07/22 05:34:12;;;;;;;16.73;9.77;;;;;;;;;;10253985;28;20220;-72
2021/07/22 05:39:35;;;;;;;17.10;9.93;;;;;;;;;;10241354;28;20232;-72
2021/07/22 05:44:58;;;;;;;15.43;9.47;;;;;;;;;;10242306;28;20244;-71
2021/07/22 05:50:21;;;;;;;15.80;9.90;;;;;;;;;;10245162;28;20207;-71
2021/07/22 05:55:43;;;;;;;18.40;10.37;;;;;;;;;;10248294;28;20216;-72
2021/07/22 06:01:07;;;;;;;17.97;10.40;;;;;;;;;;10245023;28;20204;-73
2021/07/22 06:06:30;;;;;;;16.37;10.23;;;;;;;;;;10240098;28;20220;-73
2021/07/22 06:11:52;;;;;;;17.20;11.23;;;;;;;;;;10248041;28;20204;-72
2021/07/22 06:17:16;;;;;;;16.97;9.83;;;;;;;;;;10249078;28;20262;-72
2021/07/22 06:22:38;;;;;;;17.57;10.57;;;;;;;;;;10245767;28;20715;-73
2021/07/22 06:27:59;;;;;;;16.67;9.97;;;;;;;;;;10247407;28;20199;-73
2021/07/22 06:33:22;;;;;;;17.63;9.40;;;;;;;;;;10242746;28;20205;-71
2021/07/22 06:38:44;;;;;;;16.80;10.07;;;;;;;;;;10246624;28;20296;-72
2021/07/22 06:44:05;;;;;;;15.37;9.57;;;;;;;;;;10249982;28;20318;-70
2021/07/22 06:49:28;;;;;;;15.70;9.67;;;;;;;;;;10240527;28;20197;-72
2021/07/22 06:54:50;;;;;;;16.03;9.63;;;;;;;;;;10246402;28;20324;-73
2021/07/22 07:00:11;;;;;;;15.87;9.90;;;;;;;;;;10249222;28;20315;-72
2021/07/22 07:05:34;;;;;;;15.03;9.33;;;;;;;;;;10241190;28;20395;-70
2021/07/22 07:10:56;;;;;;;17.90;10.20;;;;;;;;;;10241988;28;20299;-73
2021/07/22 07:16:17;;;;;;;17.50;9.47;;;;;;;;;;10252299;28;20708;-73
2021/07/22 07:21:40;;;;;;;17.40;9.83;;;;;;;;;;10253589;28;20200;-72
2021/07/22 07:26:42;;;;;;;14.47;9.73;;;;;;;;;;10247911;28;20220;-71
2021/07/22 07:32:05;;;;;;;16.53;9.67;;;;;;;;;;10250055;28;20196;-74
2021/07/22 07:37:29;;;;;;;18.97;9.80;;;;;;;;;;10249045;28;20211;-73
2021/07/22 07:42:51;;;;;;;14.07;9.88;;;;;;;;;;10248015;28;20223;-73
2021/07/22 07:48:14;;;;;;;14.75;9.00;;;;;;;;;;10242667;28;20204;-73
2021/07/22 07:53:38;;;;;;;14.75;9.57;;;;;;;;;;10253569;28;20216;-71
2021/07/22 07:58:40;;;;;;;14.65;9.50;;;;;;;;;;10249425;28;20208;-73
2021/07/22 08:03:43;;;;;;;12.35;8.70;;;;;;;;;;10238206;28;20229;-73
2021/07/22 08:09:07;;;;;;;14.68;9.40;;;;;;;;;;10244090;28;20203;-71
2021/07/22 08:14:31;;;;;;;13.73;9.68;;;;;;;;;;10247952;28;20243;-73
2021/07/22 08:19:58;;;;;;;14.05;10.32;;;;;;;;;;10240027;28;20255;-72
2021/07/22 08:25:23;;;;;;;13.38;9.32;;;;;;;;;;10243441;28;20299;-73
2021/07/22 08:30:45;;;;;;;12.40;8.68;;;;;;;;;;10243161;28;20189;-73
2021/07/22 08:36:08;;;;;;;15.15;8.77;;;;;;;;;;10245584;28;20227;-73
2021/07/22 08:41:30;;;;;;;13.50;10.00;;;;;;;;;;10240430;28;20245;-72
2021/07/22 08:46:34;;;;;;;11.75;9.25;;;;;;;;;;10243648;28;20680;-72
2021/07/22 08:51:56;;;;;;;11.77;9.60;;;;;;;;;;10246479;28;20192;-72
2021/07/22 08:57:22;;;;;;;12.25;8.60;;;;;;;;;;10246471;28;20184;-73
2021/07/22 09:02:45;;;;;;;11.52;9.30;;;;;;;;;;10231160;28;20220;-73
2021/07/22 09:08:07;;;;;;;11.02;8.90;;;;;;;;;;10234073;28;20282;-72
2021/07/22 09:13:31;;;;;;;13.77;8.93;;;;;;;;;;10241464;28;21430;-73
2021/07/22 09:18:54;;;;;;;10.88;8.57;;;;;;;;;;10246850;28;20203;-73
2021/07/22 09:24:16;;;;;;;11.90;9.15;;;;;;;;;;10241249;28;20216;-73
2021/07/22 09:29:52;;;;;;;11.02;9.82;;;;;;;;;;10258070;28;20191;-73
2021/07/22 09:35:15;;;;;;;9.68;8.23;;;;;;;;;;10254823;28;20222;-73
2021/07/22 09:40:37;;;;;;;11.35;9.13;;;;;;;;;;10245504;28;20753;-74
2021/07/22 09:46:01;;;;;;;10.55;9.07;;;;;;;;;;10249697;28;20216;-74
2021/07/22 09:51:31;;;;;;;10.80;8.70;;;;;;;;;;10262857;28;20203;-74
2021/07/22 09:56:54;;;;;;;11.02;8.93;;;;;;;;;;10258398;28;20219;-73
2021/07/22 10:02:19;;;;;;;10.05;8.85;;;;;;;;;;10257702;28;20195;-72
2021/07/22 10:07:41;;;;;;;10.95;9.07;;;;;;;;;;10257453;28;20227;-73
2021/07/22 10:13:03;;;;;;;11.73;9.85;;;;;;;;;;10256932;28;20281;-73
2021/07/22 10:18:26;;;;;;;10.75;8.95;;;;;;;;;;10254107;28;20676;-72
2021/07/22 10:23:42;;;;;;;11.40;9.43;;;;;;;;;;10238638;28;20696;-72
2021/07/22 10:28:45;;;;;;;13.40;9.07;;;;;;;;;;10249546;28;20201;-73
2021/07/22 10:33:49;;;;;;;11.45;8.95;;;;;;;;;;10253361;28;20357;-71
2021/07/22 10:39:11;;;;;;;12.25;9.23;;;;;;;;;;10249183;28;20195;-72
2021/07/22 10:44:34;;;;;;;11.13;9.25;;;;;;;;;;10238854;28;20220;-72
2021/07/22 10:49:58;;;;;;;11.43;9.13;;;;;;;;;;10251296;28;20211;-73
2021/07/22 10:55:47;;;;;;;10.73;9.45;;;;;;;;;;10247574;28;20303;-72
2021/07/22 11:01:10;;;;;;;11.57;10.00;;;;;;;;;;10248408;28;20204;-72
2021/07/22 11:06:54;;;;;;;11.70;10.00;;;;;;;;;;10246592;28;20223;-72
2021/07/22 11:12:34;;;;;;;12.52;9.73;;;;;;;;;;10244301;28;20243;-73
2021/07/22 11:17:37;;;;;;;12.40;9.70;;;;;;;;;;10245183;28;20191;-73
2021/07/22 11:22:46;;;;;;;12.25;9.68;;;;;;;;;;10247900;28;20239;-71
2021/07/22 11:28:10;;;;;;;10.90;9.43;;;;;;;;;;10243385;28;20314;-71
2021/07/22 11:33:15;;;;;;;11.38;9.35;;;;;;;;;;10237663;28;20208;-73
2021/07/22 11:38:39;;;;;;;10.82;9.55;;;;;;;;;;10245703;28;20287;-72
2021/07/22 11:44:02;;;;;;;11.23;9.60;;;;;;;;;;10249404;28;20223;-72
2021/07/22 11:49:32;;;;;;;14.30;12.82;;;;;;;;;;10243314;28;20198;-72
2021/07/22 11:54:36;;;;;;;11.57;9.63;;;;;;;;;;10254575;28;20238;-72
2021/07/22 11:59:46;;;;;;;11.63;9.95;;;;;;;;;;10256319;28;20521;-72
2021/07/22 12:05:09;;;;;;;12.82;9.60;;;;;;;;;;10237900;28;20219;-74
2021/07/22 12:10:33;;;;;;;12.52;9.20;;;;;;;;;;10260638;28;20199;-72
2021/07/22 12:15:56;;;;;;;11.40;9.50;;;;;;;;;;10239462;28;20604;-72
2021/07/22 12:21:19;;;;;;;12.65;9.77;;;;;;;;;;10248471;28;20212;-73
2021/07/22 12:26:43;;;;;;;11.73;9.38;;;;;;;;;;10248394;28;20582;-72
2021/07/22 12:32:09;;;;;;;12.13;9.25;;;;;;;;;;10247740;28;20200;-73
2021/07/22 12:37:12;;;;;;;11.93;8.52;;;;;;;;;;10244177;28;20339;-73
2021/07/22 12:42:21;;;;;;;11.98;9.35;;;;;;;;;;10242529;28;20284;-71
2021/07/22 12:47:46;;;;;;;13.07;9.43;;;;;;;;;;10243327;28;20773;-72
2021/07/22 12:53:09;;;;;;;11.95;8.50;;;;;;;;;;10237054;28;20239;-71
2021/07/22 12:58:34;;;;;;;11.57;9.18;;;;;;;;;;10242986;28;20192;-72
2021/07/22 13:03:37;;;;;;;11.45;8.35;;;;;;;;;;10250832;28;20213;-70
2021/07/22 13:08:45;;;;;;;12.65;9.02;;;;;;;;;;10243433;28;20284;-72
2021/07/22 13:14:09;;;;;;;13.30;8.77;;;;;;;;;;10253040;28;20224;-75
2021/07/22 13:19:31;;;;;;;12.82;9.23;;;;;;;;;;10250557;28;20207;-72
2021/07/22 13:24:54;;;;;;;14.48;9.40;;;;;;;;;;10246609;28;20219;-72
2021/07/22 13:29:58;;;;;;;13.30;9.43;;;;;;;;;;10253312;28;20196;-73
2021/07/22 13:35:00;;;;;;;11.45;8.55;;;;;;;;;;10245665;28;20849;-73
2021/07/22 13:40:03;;;;;;;12.68;8.73;;;;;;;;;;10249240;28;20204;-72
2021/07/22 13:45:08;;;;;;;12.68;8.57;;;;;;;;;;10257649;28;20247;-71
2021/07/22 13:50:11;;;;;;;12.55;9.63;;;;;;;;;;10248484;28;20221;-73
2021/07/22 13:55:14;;;;;;;13.50;8.60;;;;;;;;;;10257159;28;20228;-71
2021/07/22 14:00:18;;;;;;;12.88;8.55;;;;;;;;;;10245235;28;20205;-72
2021/07/22 14:05:26;;;;;;;12.13;8.43;;;;;;;;;;10247035;28;20216;-73
2021/07/22 14:10:29;;;;;;;14.07;9.70;;;;;;;;;;10257983;28;20203;-73
2021/07/22 14:15:53;;;;;;;12.48;8.40;;;;;;;;;;10247018;28;20220;-72
2021/07/22 14:20:55;;;;;;;13.43;8.75;;;;;;;;;;10254284;28;20192;-72
2021/07/22 14:25:59;;;;;;;13.32;8.75;;;;;;;;;;10251687;28;20224;-74
2021/07/22 14:31:03;;;;;;;12.02;8.45;;;;;;;;;;10263873;28;20215;-72
2021/07/22 14:36:06;;;;;;;11.48;7.88;;;;;;;;;;10249417;28;20215;-73
2021/07/22 14:41:08;;;;;;;12.23;8.60;;;;;;;;;;10259174;28;20275;-71
2021/07/22 14:46:12;;;;;;;14.15;8.55;;;;;;;;;;10249465;28;20211;-70
2021/07/22 14:51:15;;;;;;;12.25;8.38;;;;;;;;;;10258198;28;20228;-73
2021/07/22 14:56:17;;;;;;;11.45;8.13;;;;;;;;;;10237899;28;20226;-70
2021/07/22 15:01:21;;;;;;;11.45;8.15;;;;;;;;;;10249688;28;20704;-74
2021/07/22 15:06:24;;;;;;;11.95;8.27;;;;;;;;;;10244534;28;20577;-71
2021/07/22 15:11:26;;;;;;;13.95;8.02;;;;;;;;;;10248432;28;20223;-72
2021/07/22 15:16:30;;;;;;;13.75;8.93;;;;;;;;;;10249561;28;20740;-72
2021/07/22 15:21:36;;;;;;;11.45;8.23;;;;;;;;;;10262369;28;20211;-74
2021/07/22 15:26:38;;;;;;;11.55;8.23;;;;;;;;;;10258436;28;20224;-73
2021/07/22 15:31:42;;;;;;;12.43;9.60;;;;;;;;;;10252986;28;20650;-72
2021/07/22 15:36:45;;;;;;;13.93;9.45;;;;;;;;;;10255455;28;20216;-73
2021/07/22 15:41:48;;;;;;;11.48;7.95;;;;;;;;;;10263886;28;20196;-72
2021/07/22 15:46:52;;;;;;;13.27;7.97;;;;;;;;;;10259569;28;20212;-72
2021/07/22 15:51:54;;;;;;;13.25;8.93;;;;;;;;;;10257954;28;20572;-73
2021/07/22 15:56:57;;;;;;;19.23;13.98;;;;;;;;;;10259902;28;20215;-73
2021/07/22 16:02:03;;;;;;;12.00;7.78;;;;;;;;;;10259141;28;20196;-72
2021/07/22 16:07:07;;;;;;;13.45;7.85;;;;;;;;;;10261816;28;20704;-72
2021/07/22 16:12:09;;;;;;;13.70;8.25;;;;;;;;;;10259492;28;20297;-71
2021/07/22 16:17:13;;;;;;;14.05;8.43;;;;;;;;;;10255409;28;20236;-72
2021/07/22 16:22:16;;;;;;;12.55;8.30;;;;;;;;;;10268400;28;20196;-72
2021/07/22 16:27:19;;;;;;;11.23;7.40;;;;;;;;;;10258268;28;20208;-73
2021/07/22 16:32:23;;;;;;;12.38;8.52;;;;;;;;;;10258905;28;20613;-72
2021/07/22 16:37:26;;;;;;;13.50;8.10;;;;;;;;;;10254975;28;20561;-72
2021/07/22 16:42:29;;;;;;;11.88;8.50;;;;;;;;;;10252409;28;20675;-71
2021/07/22 16:47:33;;;;;;;12.50;7.78;;;;;;;;;;10247071;28;20608;-73
2021/07/22 16:52:35;;;;;;;13.43;8.68;;;;;;;;;;10245659;28;20246;-72
2021/07/22 16:57:38;;;;;;;13.98;9.93;;;;;;;;;;10254122;28;20188;-73
2021/07/22 17:02:42;;;;;;;12.60;8.30;;;;;;;;;;10240082;28;20277;-72
2021/07/22 17:07:45;;;;;;;12.80;8.35;;;;;;;;;;10237693;28;20216;-73
2021/07/22 17:12:47;;;;;;;11.65;7.72;;;;;;;;;;10245583;28;20228;-72
2021/07/22 17:17:51;;;;;;;13.02;8.10;;;;;;;;;;10242362;28;20225;-73
2021/07/22 17:22:54;;;;;;;12.13;7.97;;;;;;;;;;10247311;28;20243;-71
2021/07/22 17:27:57;;;;;;;11.90;8.10;;;;;;;;;;10246369;28;20234;-71
2021/07/22 17:33:01;;;;;;;13.40;7.70;;;;;;;;;;10244553;28;20212;-72
2021/07/22 17:38:03;;;;;;;13.63;8.40;;;;;;;;;;10243253;28;20201;-70
2021/07/22 17:43:06;;;;;;;14.27;8.15;;;;;;;;;;10248221;28;20307;-72
2021/07/22 17:48:10;;;;;;;11.32;8.00;;;;;;;;;;10248552;28;20665;-72
2021/07/22 17:53:12;;;;;;;12.55;7.82;;;;;;;;;;10261607;28;20298;-71
2021/07/22 17:58:15;;;;;;;13.93;8.20;;;;;;;;;;10225418;28;20200;-72
2021/07/22 18:03:19;;;;;;;13.00;8.13;;;;;;;;;;10232728;28;20246;-72
2021/07/22 18:08:22;;;;;;;13.48;8.30;;;;;;;;;;10243100;28;20224;-73
2021/07/22 18:13:25;;;;;;;11.90;8.13;;;;;;;;;;10249172;28;20325;-72
2021/07/22 18:18:31;;;;;;;14.10;8.00;;;;;;;;;;10250675;28;20204;-72
2021/07/22 18:23:34;;;;;;;12.20;6.95;;;;;;;;;;10236340;28;20328;-73
2021/07/22 18:28:37;;;;;;;13.10;7.47;;;;;;;;;;10250617;28;20275;-73
2021/07/22 18:33:47;;;;;;;15.73;8.45;;;;;;;;;;10243721;28;20879;-72
2021/07/22 18:38:49;;;;;;;13.13;7.22;;;;;;;;;;10256417;28;20629;-71
2021/07/22 18:43:52;;;;;;;13.07;8.07;;;;;;;;;;10242064;28;20221;-72
2021/07/22 18:48:55;;;;;;;13.15;7.82;;;;;;;;;;10241183;28;20247;-74
2021/07/22 18:53:58;;;;;;;14.88;8.70;;;;;;;;;;10259228;28;20208;-71
2021/07/22 18:59:01;;;;;;;12.07;8.20;;;;;;;;;;10252625;28;20246;-73
2021/07/22 19:04:06;;;;;;;15.10;9.07;;;;;;;;;;10240481;28;20277;-72
2021/07/22 19:09:08;;;;;;;14.45;8.25;;;;;;;;;;10244195;28;20204;-72
2021/07/22 19:14:11;;;;;;;13.80;7.95;;;;;;;;;;10253364;28;20308;-72
2021/07/22 19:19:15;;;;;;;14.55;8.98;;;;;;;;;;10251925;28;20193;-72
2021/07/22 19:24:17;;;;;;;13.20;8.60;;;;;;;;;;10245801;28;20702;-72
2021/07/22 19:29:22;;;;;;;14.30;8.65;;;;;;;;;;10245855;28;20215;-72
2021/07/22 19:34:26;;;;;;;15.63;8.77;;;;;;;;;;10247389;28;20220;-73
2021/07/22 19:39:29;;;;;;;13.20;8.27;;;;;;;;;;10244506;28;20291;-72
2021/07/22 19:44:31;;;;;;;15.57;8.65;;;;;;;;;;10245308;28;20219;-71
2021/07/22 19:49:36;;;;;;;15.52;8.68;;;;;;;;;;10245379;28;20280;-72
2021/07/22 19:54:38;;;;;;;15.77;10.13;;;;;;;;;;10243653;28;20459;-73
2021/07/22 19:59:41;;;;;;;15.50;10.52;;;;;;;;;;10242448;28;20546;-73
2021/07/22 20:04:45;;;;;;;13.88;8.68;;;;;;;;;;10239689;28;20208;-74
2021/07/22 20:09:47;;;;;;;14.40;9.77;;;;;;;;;;10244951;28;20220;-72
2021/07/22 20:14:50;;;;;;;14.20;9.32;;;;;;;;;;10271595;28;20219;-72
2021/07/22 20:19:54;;;;;;;15.75;8.95;;;;;;;;;;10246477;28;20192;-71
2021/07/22 20:24:57;;;;;;;14.07;9.15;;;;;;;;;;10245835;28;20251;-73
2021/07/22 20:29:59;;;;;;;17.13;9.87;;;;;;;;;;10242272;28;20335;-73
2021/07/22 20:35:04;;;;;;;18.47;11.40;;;;;;;;;;10243921;28;20278;-71
2021/07/22 20:40:07;;;;;;;19.30;12.17;;;;;;;;;;10239744;28;20208;-72
2021/07/22 20:45:11;;;;;;;15.50;8.57;;;;;;;;;;10262556;28;20231;-73
2021/07/22 20:50:15;;;;;;;15.57;9.37;;;;;;;;;;10242504;28;20550;-73
2021/07/22 20:55:18;;;;;;;14.70;9.10;;;;;;;;;;10246615;28;20216;-72
2021/07/22 21:00:21;;;;;;;16.70;8.90;;;;;;;;;;10271400;28;20239;-73
2021/07/22 21:05:25;;;;;;;15.83;9.87;;;;;;;;;;10251454;28;20224;-71
2021/07/22 21:10:28;;;;;;;15.77;9.33;;;;;;;;;;10276273;28;20769;-72
2021/07/22 21:15:30;;;;;;;13.43;8.90;;;;;;;;;;10255267;28;20314;-71
2021/07/22 21:20:35;;;;;;;16.07;8.97;;;;;;;;;;10258454;28;20252;-72
2021/07/22 21:25:37;;;;;;;13.37;8.10;;;;;;;;;;10265342;28;20295;-73
2021/07/22 21:30:40;;;;;;;12.70;8.30;;;;;;;;;;10256304;28;20247;-72
2021/07/22 21:35:44;;;;;;;13.53;8.80;;;;;;;;;;10257659;28;20267;-73
2021/07/22 21:40:47;;;;;;;14.17;8.33;;;;;;;;;;10256777;28;20220;-72
2021/07/22 21:45:49;;;;;;;13.77;8.07;;;;;;;;;;10250576;28;20223;-74
2021/07/22 21:50:53;;;;;;;13.83;8.60;;;;;;;;;;10255260;28;20637;-73
2021/07/22 21:55:56;;;;;;;15.10;9.63;;;;;;;;;;10251888;28;20327;-73
2021/07/22 22:01:03;;;;;;;14.30;8.23;;;;;;;;;;10258459;28;20208;-73
2021/07/22 22:06:07;;;;;;;12.97;8.17;;;;;;;;;;10257034;28;20678;-72
2021/07/22 22:11:11;;;;;;;12.33;8.30;;;;;;;;;;10262454;28;20255;-73
2021/07/22 22:16:13;;;;;;;13.23;8.60;;;;;;;;;;10261499;28;20220;-74
2021/07/22 22:21:17;;;;;;;12.63;8.33;;;;;;;;;;10258144;28;20466;-74
2021/07/22 22:26:19;;;;;;;12.90;8.57;;;;;;;;;;10251026;28;20651;-74
2021/07/22 22:31:22;;;;;;;13.87;8.73;;;;;;;;;;10242706;28;20212;-72
2021/07/22 22:36:26;;;;;;;14.27;8.60;;;;;;;;;;10251543;28;20224;-72
2021/07/22 22:41:29;;;;;;;14.10;8.10;;;;;;;;;;10253668;28;20199;-72
2021/07/22 22:46:31;;;;;;;15.10;9.00;;;;;;;;;;10245034;28;20257;-71
2021/07/22 22:51:35;;;;;;;13.47;8.63;;;;;;;;;;10260963;28;20223;-72
2021/07/22 22:56:38;;;;;;;15.67;9.43;;;;;;;;;;10248984;28;20228;-72
2021/07/22 23:01:40;;;;;;;15.13;8.70;;;;;;;;;;10254753;28;20271;-73
2021/07/22 23:06:44;;;;;;;14.13;8.63;;;;;;;;;;10255404;28;20710;-72
2021/07/22 23:11:47;;;;;;;15.27;8.60;;;;;;;;;;10250444;28;20280;-72
2021/07/22 23:16:49;;;;;;;15.17;9.00;;;;;;;;;;10251562;28;20628;-69
2021/07/22 23:21:53;;;;;;;14.37;8.80;;;;;;;;;;10245516;28;20201;-70
2021/07/22 23:26:56;;;;;;;15.37;9.03;;;;;;;;;;10251144;28;20212;-71
2021/07/22 23:31:58;;;;;;;16.70;9.77;;;;;;;;;;10251391;28;20571;-72
2021/07/22 23:37:03;;;;;;;12.63;8.67;;;;;;;;;;10251461;28;20609;-73
2021/07/22 23:42:05;;;;;;;13.27;8.30;;;;;;;;;;10247417;28;20201;-73
2021/07/22 23:47:08;;;;;;;14.40;8.83;;;;;;;;;;10244420;28;20689;-72
2021/07/22 23:52:11;;;;;;;14.93;8.77;;;;;;;;;;10245619;28;20197;-71
2021/07/22 23:57:14;;;;;;;13.00;8.83;;;;;;;;;;10242316;28;20247;-72
